sensor_id;sensor_type;location;lat;lon;timestamp;pressure;altitude;pressure_sealevel;temperature
10058;BMP180;5068;51.286;7.518;2023-08-08T00:01:26;99256.00;;;14.50
10058;BMP180;5068;51.286;7.518;2023-08-08T00:02:58;99252.00;;;14.50
10058;BMP180;5068;51.286;7.518;2023-08-08T00:04:32;99253.00;;;14.50
10058;BMP180;5068;51.286;7.518;2023-08-08T00:06:04;99249.00;;;14.50
10058;BMP180;5068;51.286;7.518;2023-08-08T00:07:39;99244.00;;;14.50
10058;BMP180;5068;51.286;7.518;2023-08-08T00:09:11;99247.00;;;14.60
10058;BMP180;5068;51.286;7.518;2023-08-08T00:10:45;99243.00;;;14.50
10058;BMP180;5068;51.286;7.518;2023-08-08T00:12:18;99239.00;;;14.60
10058;BMP180;5068;51.286;7.518;2023-08-08T00:13:51;99247.00;;;14.60
10058;BMP180;5068;51.286;7.518;2023-08-08T00:15:24;99232.00;;;14.60
10058;BMP180;5068;51.286;7.518;2023-08-08T00:16:57;99242.00;;;14.60
10058;BMP180;5068;51.286;7.518;2023-08-08T00:18:30;99236.00;;;14.60
10058;BMP180;5068;51.286;7.518;2023-08-08T00:20:05;99229.00;;;14.60
10058;BMP180;5068;51.286;7.518;2023-08-08T00:21:39;99227.00;;;14.60
10058;BMP180;5068;51.286;7.518;2023-08-08T00:23:14;99239.00;;;14.70
10058;BMP180;5068;51.286;7.518;2023-08-08T00:24:46;99236.00;;;14.70
10058;BMP180;5068;51.286;7.518;2023-08-08T00:26:19;99227.00;;;14.70
10058;BMP180;5068;51.286;7.518;2023-08-08T00:27:51;99225.00;;;14.60
10058;BMP180;5068;51.286;7.518;2023-08-08T00:29:25;99222.00;;;14.60
10058;BMP180;5068;51.286;7.518;2023-08-08T00:30:57;99225.00;;;14.60
10058;BMP180;5068;51.286;7.518;2023-08-08T00:32:31;99225.00;;;14.60
10058;BMP180;5068;51.286;7.518;2023-08-08T00:34:03;99228.00;;;14.60
10058;BMP180;5068;51.286;7.518;2023-08-08T00:35:36;99223.00;;;14.60
10058;BMP180;5068;51.286;7.518;2023-08-08T00:37:09;99228.00;;;14.60
10058;BMP180;5068;51.286;7.518;2023-08-08T00:38:43;99220.00;;;14.60
10058;BMP180;5068;51.286;7.518;2023-08-08T00:40:16;99220.00;;;14.60
10058;BMP180;5068;51.286;7.518;2023-08-08T00:41:49;99223.00;;;14.60
10058;BMP180;5068;51.286;7.518;2023-08-08T00:43:22;99219.00;;;14.60
10058;BMP180;5068;51.286;7.518;2023-08-08T00:44:55;99222.00;;;14.60
10058;BMP180;5068;51.286;7.518;2023-08-08T00:46:34;99215.00;;;14.60
10058;BMP180;5068;51.286;7.518;2023-08-08T00:48:08;99223.00;;;14.60
10058;BMP180;5068;51.286;7.518;2023-08-08T00:49:41;99213.00;;;14.60
10058;BMP180;5068;51.286;7.518;2023-08-08T00:51:16;99216.00;;;14.60
10058;BMP180;5068;51.286;7.518;2023-08-08T00:52:50;99223.00;;;14.60
10058;BMP180;5068;51.286;7.518;2023-08-08T00:54:24;99229.00;;;14.60
10058;BMP180;5068;51.286;7.518;2023-08-08T00:55:59;99219.00;;;14.60
10058;BMP180;5068;51.286;7.518;2023-08-08T00:57:31;99226.00;;;14.60
10058;BMP180;5068;51.286;7.518;2023-08-08T00:59:08;99219.00;;;14.60
10058;BMP180;5068;51.286;7.518;2023-08-08T01:00:44;99225.00;;;14.60
10058;BMP180;5068;51.286;7.518;2023-08-08T01:02:17;99224.00;;;14.60
10058;BMP180;5068;51.286;7.518;2023-08-08T01:03:50;99226.00;;;14.60
10058;BMP180;5068;51.286;7.518;2023-08-08T01:05:28;99225.00;;;14.60
10058;BMP180;5068;51.286;7.518;2023-08-08T01:07:13;99221.00;;;14.60
10058;BMP180;5068;51.286;7.518;2023-08-08T01:08:57;99216.00;;;14.60
10058;BMP180;5068;51.286;7.518;2023-08-08T01:10:36;99217.00;;;14.50
10058;BMP180;5068;51.286;7.518;2023-08-08T01:12:13;99211.00;;;14.50
10058;BMP180;5068;51.286;7.518;2023-08-08T01:13:47;99215.00;;;14.50
10058;BMP180;5068;51.286;7.518;2023-08-08T01:15:22;99210.00;;;14.50
10058;BMP180;5068;51.286;7.518;2023-08-08T01:16:57;99212.00;;;14.50
10058;BMP180;5068;51.286;7.518;2023-08-08T01:18:32;99211.00;;;14.50
10058;BMP180;5068;51.286;7.518;2023-08-08T01:20:07;99216.00;;;14.50
10058;BMP180;5068;51.286;7.518;2023-08-08T01:21:45;99220.00;;;14.40
10058;BMP180;5068;51.286;7.518;2023-08-08T01:23:32;99208.00;;;14.40
10058;BMP180;5068;51.286;7.518;2023-08-08T01:25:09;99223.00;;;14.40
10058;BMP180;5068;51.286;7.518;2023-08-08T01:26:42;99221.00;;;14.40
10058;BMP180;5068;51.286;7.518;2023-08-08T01:28:20;99216.00;;;14.30
10058;BMP180;5068;51.286;7.518;2023-08-08T01:29:53;99219.00;;;14.30
10058;BMP180;5068;51.286;7.518;2023-08-08T01:31:26;99225.00;;;14.30
10058;BMP180;5068;51.286;7.518;2023-08-08T01:32:58;99221.00;;;14.30
10058;BMP180;5068;51.286;7.518;2023-08-08T01:34:32;99217.00;;;14.30
10058;BMP180;5068;51.286;7.518;2023-08-08T01:36:22;99217.00;;;14.30
10058;BMP180;5068;51.286;7.518;2023-08-08T01:38:06;99219.00;;;14.30
10058;BMP180;5068;51.286;7.518;2023-08-08T01:39:42;99217.00;;;14.30
10058;BMP180;5068;51.286;7.518;2023-08-08T01:41:20;99216.00;;;14.20
10058;BMP180;5068;51.286;7.518;2023-08-08T01:42:54;99204.00;;;14.20
10058;BMP180;5068;51.286;7.518;2023-08-08T01:44:29;99196.00;;;14.20
10058;BMP180;5068;51.286;7.518;2023-08-08T01:46:08;99209.00;;;14.20
10058;BMP180;5068;51.286;7.518;2023-08-08T01:47:42;99204.00;;;14.20
10058;BMP180;5068;51.286;7.518;2023-08-08T01:49:14;99216.00;;;14.20
10058;BMP180;5068;51.286;7.518;2023-08-08T01:50:48;99203.00;;;14.20
10058;BMP180;5068;51.286;7.518;2023-08-08T01:52:20;99207.00;;;14.20
10058;BMP180;5068;51.286;7.518;2023-08-08T01:53:54;99206.00;;;14.20
10058;BMP180;5068;51.286;7.518;2023-08-08T01:55:27;99212.00;;;14.10
10058;BMP180;5068;51.286;7.518;2023-08-08T01:57:02;99208.00;;;14.20
10058;BMP180;5068;51.286;7.518;2023-08-08T01:58:36;99200.00;;;14.10
10058;BMP180;5068;51.286;7.518;2023-08-08T02:00:10;99206.00;;;14.10
10058;BMP180;5068;51.286;7.518;2023-08-08T02:01:48;99210.00;;;14.10
10058;BMP180;5068;51.286;7.518;2023-08-08T02:03:21;99204.00;;;14.10
10058;BMP180;5068;51.286;7.518;2023-08-08T02:04:54;99210.00;;;14.10
10058;BMP180;5068;51.286;7.518;2023-08-08T02:06:27;99203.00;;;14.10
10058;BMP180;5068;51.286;7.518;2023-08-08T02:08:00;99195.00;;;14.10
10058;BMP180;5068;51.286;7.518;2023-08-08T02:09:35;99196.00;;;14.10
10058;BMP180;5068;51.286;7.518;2023-08-08T02:11:08;99193.00;;;14.10
10058;BMP180;5068;51.286;7.518;2023-08-08T02:12:42;99194.00;;;14.10
10058;BMP180;5068;51.286;7.518;2023-08-08T02:14:15;99185.00;;;14.10
10058;BMP180;5068;51.286;7.518;2023-08-08T02:15:48;99193.00;;;14.10
10058;BMP180;5068;51.286;7.518;2023-08-08T02:17:21;99193.00;;;14.10
10058;BMP180;5068;51.286;7.518;2023-08-08T02:18:54;99180.00;;;14.10
10058;BMP180;5068;51.286;7.518;2023-08-08T02:20:27;99192.00;;;14.00
10058;BMP180;5068;51.286;7.518;2023-08-08T02:22:01;99187.00;;;14.00
10058;BMP180;5068;51.286;7.518;2023-08-08T02:23:35;99185.00;;;14.00
10058;BMP180;5068;51.286;7.518;2023-08-08T02:25:08;99186.00;;;14.00
10058;BMP180;5068;51.286;7.518;2023-08-08T02:26:41;99183.00;;;14.00
10058;BMP180;5068;51.286;7.518;2023-08-08T02:28:15;99178.00;;;14.00
10058;BMP180;5068;51.286;7.518;2023-08-08T02:29:48;99182.00;;;14.00
10058;BMP180;5068;51.286;7.518;2023-08-08T02:31:22;99174.00;;;13.90
10058;BMP180;5068;51.286;7.518;2023-08-08T02:32:55;99170.00;;;13.90
10058;BMP180;5068;51.286;7.518;2023-08-08T02:34:31;99177.00;;;13.90
10058;BMP180;5068;51.286;7.518;2023-08-08T02:36:04;99167.00;;;13.90
10058;BMP180;5068;51.286;7.518;2023-08-08T02:37:37;99166.00;;;13.90
10058;BMP180;5068;51.286;7.518;2023-08-08T02:39:10;99155.00;;;13.80
10058;BMP180;5068;51.286;7.518;2023-08-08T02:40:43;99161.00;;;13.80
10058;BMP180;5068;51.286;7.518;2023-08-08T02:42:15;99158.00;;;13.80
10058;BMP180;5068;51.286;7.518;2023-08-08T02:43:50;99147.00;;;13.80
10058;BMP180;5068;51.286;7.518;2023-08-08T02:45:23;99139.00;;;13.80
10058;BMP180;5068;51.286;7.518;2023-08-08T02:46:57;99139.00;;;13.80
10058;BMP180;5068;51.286;7.518;2023-08-08T02:48:30;99131.00;;;13.70
10058;BMP180;5068;51.286;7.518;2023-08-08T02:50:04;99147.00;;;13.70
10058;BMP180;5068;51.286;7.518;2023-08-08T02:51:37;99160.00;;;13.70
10058;BMP180;5068;51.286;7.518;2023-08-08T02:53:10;99153.00;;;13.70
10058;BMP180;5068;51.286;7.518;2023-08-08T02:54:48;99160.00;;;13.70
10058;BMP180;5068;51.286;7.518;2023-08-08T02:56:21;99146.00;;;13.70
10058;BMP180;5068;51.286;7.518;2023-08-08T02:57:56;99151.00;;;13.70
10058;BMP180;5068;51.286;7.518;2023-08-08T02:59:31;99161.00;;;13.70
10058;BMP180;5068;51.286;7.518;2023-08-08T03:01:05;99152.00;;;13.70
10058;BMP180;5068;51.286;7.518;2023-08-08T03:02:39;99141.00;;;13.70
10058;BMP180;5068;51.286;7.518;2023-08-08T03:04:13;99143.00;;;13.70
10058;BMP180;5068;51.286;7.518;2023-08-08T03:05:46;99147.00;;;13.70
10058;BMP180;5068;51.286;7.518;2023-08-08T03:07:21;99141.00;;;13.70
10058;BMP180;5068;51.286;7.518;2023-08-08T03:08:55;99138.00;;;13.70
10058;BMP180;5068;51.286;7.518;2023-08-08T03:10:28;99137.00;;;13.70
10058;BMP180;5068;51.286;7.518;2023-08-08T03:12:00;99129.00;;;13.70
10058;BMP180;5068;51.286;7.518;2023-08-08T03:13:35;99138.00;;;13.70
10058;BMP180;5068;51.286;7.518;2023-08-08T03:15:11;99133.00;;;13.70
10058;BMP180;5068;51.286;7.518;2023-08-08T03:16:45;99142.00;;;13.70
10058;BMP180;5068;51.286;7.518;2023-08-08T03:18:18;99140.00;;;13.60
10058;BMP180;5068;51.286;7.518;2023-08-08T03:19:51;99143.00;;;13.60
10058;BMP180;5068;51.286;7.518;2023-08-08T03:21:24;99143.00;;;13.60
10058;BMP180;5068;51.286;7.518;2023-08-08T03:22:57;99144.00;;;13.60
10058;BMP180;5068;51.286;7.518;2023-08-08T03:24:30;99137.00;;;13.60
10058;BMP180;5068;51.286;7.518;2023-08-08T03:26:03;99147.00;;;13.60
10058;BMP180;5068;51.286;7.518;2023-08-08T03:27:35;99146.00;;;13.60
10058;BMP180;5068;51.286;7.518;2023-08-08T03:29:09;99148.00;;;13.60
10058;BMP180;5068;51.286;7.518;2023-08-08T03:30:48;99145.00;;;13.60
10058;BMP180;5068;51.286;7.518;2023-08-08T03:32:22;99139.00;;;13.70
10058;BMP180;5068;51.286;7.518;2023-08-08T03:33:55;99140.00;;;13.70
10058;BMP180;5068;51.286;7.518;2023-08-08T03:35:28;99130.00;;;13.70
10058;BMP180;5068;51.286;7.518;2023-08-08T03:37:01;99136.00;;;13.70
10058;BMP180;5068;51.286;7.518;2023-08-08T03:38:34;99135.00;;;13.70
10058;BMP180;5068;51.286;7.518;2023-08-08T03:40:11;99139.00;;;13.70
10058;BMP180;5068;51.286;7.518;2023-08-08T03:41:45;99121.00;;;13.70
10058;BMP180;5068;51.286;7.518;2023-08-08T03:43:18;99131.00;;;13.70
10058;BMP180;5068;51.286;7.518;2023-08-08T03:44:52;99139.00;;;13.70
10058;BMP180;5068;51.286;7.518;2023-08-08T03:46:26;99133.00;;;13.70
10058;BMP180;5068;51.286;7.518;2023-08-08T03:47:59;99127.00;;;13.70
10058;BMP180;5068;51.286;7.518;2023-08-08T03:49:31;99139.00;;;13.80
10058;BMP180;5068;51.286;7.518;2023-08-08T03:51:05;99135.00;;;13.80
10058;BMP180;5068;51.286;7.518;2023-08-08T03:52:38;99135.00;;;13.80
10058;BMP180;5068;51.286;7.518;2023-08-08T03:54:18;99135.00;;;13.80
10058;BMP180;5068;51.286;7.518;2023-08-08T03:55:50;99120.00;;;13.80
10058;BMP180;5068;51.286;7.518;2023-08-08T03:57:23;99118.00;;;13.80
10058;BMP180;5068;51.286;7.518;2023-08-08T03:58:58;99130.00;;;13.90
10058;BMP180;5068;51.286;7.518;2023-08-08T04:00:31;99134.00;;;13.90
10058;BMP180;5068;51.286;7.518;2023-08-08T04:02:05;99134.00;;;13.90
10058;BMP180;5068;51.286;7.518;2023-08-08T04:03:38;99139.00;;;13.90
10058;BMP180;5068;51.286;7.518;2023-08-08T04:05:12;99133.00;;;13.90
10058;BMP180;5068;51.286;7.518;2023-08-08T04:06:45;99160.00;;;14.00
10058;BMP180;5068;51.286;7.518;2023-08-08T04:08:19;99147.00;;;14.00
10058;BMP180;5068;51.286;7.518;2023-08-08T04:09:53;99139.00;;;14.00
10058;BMP180;5068;51.286;7.518;2023-08-08T04:11:26;99140.00;;;14.10
10058;BMP180;5068;51.286;7.518;2023-08-08T04:12:59;99148.00;;;14.10
10058;BMP180;5068;51.286;7.518;2023-08-08T04:14:32;99143.00;;;14.10
10058;BMP180;5068;51.286;7.518;2023-08-08T04:16:04;99131.00;;;14.20
10058;BMP180;5068;51.286;7.518;2023-08-08T04:17:39;99137.00;;;14.20
10058;BMP180;5068;51.286;7.518;2023-08-08T04:19:11;99129.00;;;14.30
10058;BMP180;5068;51.286;7.518;2023-08-08T04:20:46;99124.00;;;14.30
10058;BMP180;5068;51.286;7.518;2023-08-08T04:22:19;99130.00;;;14.40
10058;BMP180;5068;51.286;7.518;2023-08-08T04:23:52;99134.00;;;14.40
10058;BMP180;5068;51.286;7.518;2023-08-08T04:25:25;99127.00;;;14.50
10058;BMP180;5068;51.286;7.518;2023-08-08T04:26:59;99139.00;;;14.50
10058;BMP180;5068;51.286;7.518;2023-08-08T04:28:32;99139.00;;;14.50
10058;BMP180;5068;51.286;7.518;2023-08-08T04:30:07;99142.00;;;14.60
10058;BMP180;5068;51.286;7.518;2023-08-08T04:31:40;99130.00;;;14.60
10058;BMP180;5068;51.286;7.518;2023-08-08T04:33:15;99129.00;;;14.60
10058;BMP180;5068;51.286;7.518;2023-08-08T04:34:47;99127.00;;;14.60
10058;BMP180;5068;51.286;7.518;2023-08-08T04:36:21;99128.00;;;14.70
10058;BMP180;5068;51.286;7.518;2023-08-08T04:37:53;99132.00;;;14.70
10058;BMP180;5068;51.286;7.518;2023-08-08T04:39:26;99132.00;;;14.80
10058;BMP180;5068;51.286;7.518;2023-08-08T04:40:59;99130.00;;;14.80
10058;BMP180;5068;51.286;7.518;2023-08-08T04:42:32;99129.00;;;14.80
10058;BMP180;5068;51.286;7.518;2023-08-08T04:44:05;99131.00;;;14.80
10058;BMP180;5068;51.286;7.518;2023-08-08T04:45:38;99125.00;;;14.90
10058;BMP180;5068;51.286;7.518;2023-08-08T04:47:11;99119.00;;;14.90
10058;BMP180;5068;51.286;7.518;2023-08-08T04:48:45;99120.00;;;14.90
10058;BMP180;5068;51.286;7.518;2023-08-08T04:50:19;99126.00;;;14.90
10058;BMP180;5068;51.286;7.518;2023-08-08T04:51:52;99106.00;;;15.00
10058;BMP180;5068;51.286;7.518;2023-08-08T04:53:26;99112.00;;;15.00
10058;BMP180;5068;51.286;7.518;2023-08-08T04:54:58;99114.00;;;15.00
10058;BMP180;5068;51.286;7.518;2023-08-08T04:56:32;99114.00;;;15.10
10058;BMP180;5068;51.286;7.518;2023-08-08T04:58:04;99100.00;;;15.10
10058;BMP180;5068;51.286;7.518;2023-08-08T04:59:38;99098.00;;;15.10
10058;BMP180;5068;51.286;7.518;2023-08-08T05:01:10;99092.00;;;15.10
10058;BMP180;5068;51.286;7.518;2023-08-08T05:02:46;99105.00;;;15.20
10058;BMP180;5068;51.286;7.518;2023-08-08T05:04:20;99099.00;;;15.20
10058;BMP180;5068;51.286;7.518;2023-08-08T05:05:54;99094.00;;;15.30
10058;BMP180;5068;51.286;7.518;2023-08-08T05:07:26;99102.00;;;15.30
10058;BMP180;5068;51.286;7.518;2023-08-08T05:09:00;99108.00;;;15.30
10058;BMP180;5068;51.286;7.518;2023-08-08T05:10:32;99101.00;;;15.30
10058;BMP180;5068;51.286;7.518;2023-08-08T05:12:07;99107.00;;;15.40
10058;BMP180;5068;51.286;7.518;2023-08-08T05:13:39;99117.00;;;15.40
10058;BMP180;5068;51.286;7.518;2023-08-08T05:15:13;99103.00;;;15.40
10058;BMP180;5068;51.286;7.518;2023-08-08T05:16:45;99102.00;;;15.50
10058;BMP180;5068;51.286;7.518;2023-08-08T05:18:19;99098.00;;;15.50
10058;BMP180;5068;51.286;7.518;2023-08-08T05:19:53;99105.00;;;15.50
10058;BMP180;5068;51.286;7.518;2023-08-08T05:21:26;99099.00;;;15.50
10058;BMP180;5068;51.286;7.518;2023-08-08T05:22:58;99106.00;;;15.50
10058;BMP180;5068;51.286;7.518;2023-08-08T05:24:32;99110.00;;;15.60
10058;BMP180;5068;51.286;7.518;2023-08-08T05:26:04;99108.00;;;15.60
10058;BMP180;5068;51.286;7.518;2023-08-08T05:27:37;99102.00;;;15.60
10058;BMP180;5068;51.286;7.518;2023-08-08T05:29:10;99104.00;;;15.60
10058;BMP180;5068;51.286;7.518;2023-08-08T05:30:43;99092.00;;;15.70
10058;BMP180;5068;51.286;7.518;2023-08-08T05:32:15;99094.00;;;15.70
10058;BMP180;5068;51.286;7.518;2023-08-08T05:33:50;99092.00;;;15.70
10058;BMP180;5068;51.286;7.518;2023-08-08T05:35:24;99087.00;;;15.70
10058;BMP180;5068;51.286;7.518;2023-08-08T05:36:57;99104.00;;;15.80
10058;BMP180;5068;51.286;7.518;2023-08-08T05:38:47;99108.00;;;15.80
10058;BMP180;5068;51.286;7.518;2023-08-08T05:40:21;99109.00;;;15.80
10058;BMP180;5068;51.286;7.518;2023-08-08T05:41:54;99102.00;;;15.80
10058;BMP180;5068;51.286;7.518;2023-08-08T05:43:27;99110.00;;;15.80
10058;BMP180;5068;51.286;7.518;2023-08-08T05:45:02;99100.00;;;15.90
10058;BMP180;5068;51.286;7.518;2023-08-08T05:46:35;99107.00;;;15.90
10058;BMP180;5068;51.286;7.518;2023-08-08T05:48:08;99105.00;;;15.90
10058;BMP180;5068;51.286;7.518;2023-08-08T05:49:44;99107.00;;;15.90
10058;BMP180;5068;51.286;7.518;2023-08-08T05:51:18;99111.00;;;15.90
10058;BMP180;5068;51.286;7.518;2023-08-08T05:52:51;99109.00;;;15.90
10058;BMP180;5068;51.286;7.518;2023-08-08T05:54:24;99109.00;;;15.90
10058;BMP180;5068;51.286;7.518;2023-08-08T05:55:57;99114.00;;;15.90
10058;BMP180;5068;51.286;7.518;2023-08-08T05:57:30;99106.00;;;16.00
10058;BMP180;5068;51.286;7.518;2023-08-08T05:59:04;99112.00;;;16.00
10058;BMP180;5068;51.286;7.518;2023-08-08T06:00:36;99107.00;;;16.00
10058;BMP180;5068;51.286;7.518;2023-08-08T06:02:10;99107.00;;;16.00
10058;BMP180;5068;51.286;7.518;2023-08-08T06:03:43;99108.00;;;16.00
10058;BMP180;5068;51.286;7.518;2023-08-08T06:05:16;99107.00;;;16.00
10058;BMP180;5068;51.286;7.518;2023-08-08T06:06:51;99102.00;;;16.00
10058;BMP180;5068;51.286;7.518;2023-08-08T06:08:24;99110.00;;;16.10
10058;BMP180;5068;51.286;7.518;2023-08-08T06:09:57;99112.00;;;16.10
10058;BMP180;5068;51.286;7.518;2023-08-08T06:11:29;99113.00;;;16.10
10058;BMP180;5068;51.286;7.518;2023-08-08T06:13:03;99108.00;;;16.10
10058;BMP180;5068;51.286;7.518;2023-08-08T06:14:35;99118.00;;;16.10
10058;BMP180;5068;51.286;7.518;2023-08-08T06:16:09;99121.00;;;16.20
10058;BMP180;5068;51.286;7.518;2023-08-08T06:17:41;99117.00;;;16.20
10058;BMP180;5068;51.286;7.518;2023-08-08T06:19:15;99111.00;;;16.20
10058;BMP180;5068;51.286;7.518;2023-08-08T06:20:48;99110.00;;;16.20
10058;BMP180;5068;51.286;7.518;2023-08-08T06:22:22;99119.00;;;16.20
10058;BMP180;5068;51.286;7.518;2023-08-08T06:23:55;99125.00;;;16.30
10058;BMP180;5068;51.286;7.518;2023-08-08T06:25:28;99127.00;;;16.30
10058;BMP180;5068;51.286;7.518;2023-08-08T06:27:01;99122.00;;;16.30
10058;BMP180;5068;51.286;7.518;2023-08-08T06:28:36;99123.00;;;16.30
10058;BMP180;5068;51.286;7.518;2023-08-08T06:30:09;99121.00;;;16.30
10058;BMP180;5068;51.286;7.518;2023-08-08T06:31:42;99136.00;;;16.30
10058;BMP180;5068;51.286;7.518;2023-08-08T06:33:15;99127.00;;;16.30
10058;BMP180;5068;51.286;7.518;2023-08-08T06:34:48;99133.00;;;16.30
10058;BMP180;5068;51.286;7.518;2023-08-08T06:36:20;99139.00;;;16.40
10058;BMP180;5068;51.286;7.518;2023-08-08T06:37:56;99132.00;;;16.40
10058;BMP180;5068;51.286;7.518;2023-08-08T06:39:37;99133.00;;;16.40
10058;BMP180;5068;51.286;7.518;2023-08-08T06:41:30;99137.00;;;16.40
10058;BMP180;5068;51.286;7.518;2023-08-08T06:43:22;99133.00;;;16.40
10058;BMP180;5068;51.286;7.518;2023-08-08T06:45:14;99136.00;;;16.40
10058;BMP180;5068;51.286;7.518;2023-08-08T06:46:48;99131.00;;;16.40
10058;BMP180;5068;51.286;7.518;2023-08-08T06:48:21;99129.00;;;16.40
10058;BMP180;5068;51.286;7.518;2023-08-08T06:49:53;99130.00;;;16.40
10058;BMP180;5068;51.286;7.518;2023-08-08T06:51:27;99138.00;;;16.40
10058;BMP180;5068;51.286;7.518;2023-08-08T06:52:59;99133.00;;;16.40
10058;BMP180;5068;51.286;7.518;2023-08-08T06:54:32;99130.00;;;16.40
10058;BMP180;5068;51.286;7.518;2023-08-08T06:56:06;99131.00;;;16.40
10058;BMP180;5068;51.286;7.518;2023-08-08T06:57:40;99133.00;;;16.40
10058;BMP180;5068;51.286;7.518;2023-08-08T06:59:12;99134.00;;;16.40
10058;BMP180;5068;51.286;7.518;2023-08-08T07:00:46;99131.00;;;16.40
10058;BMP180;5068;51.286;7.518;2023-08-08T07:02:19;99135.00;;;16.40
10058;BMP180;5068;51.286;7.518;2023-08-08T07:03:52;99132.00;;;16.40
10058;BMP180;5068;51.286;7.518;2023-08-08T07:05:25;99128.00;;;16.50
10058;BMP180;5068;51.286;7.518;2023-08-08T07:06:58;99125.00;;;16.50
10058;BMP180;5068;51.286;7.518;2023-08-08T07:08:31;99134.00;;;16.50
10058;BMP180;5068;51.286;7.518;2023-08-08T07:10:05;99128.00;;;16.50
10058;BMP180;5068;51.286;7.518;2023-08-08T07:11:40;99133.00;;;16.50
10058;BMP180;5068;51.286;7.518;2023-08-08T07:13:13;99133.00;;;16.50
10058;BMP180;5068;51.286;7.518;2023-08-08T07:14:47;99132.00;;;16.50
10058;BMP180;5068;51.286;7.518;2023-08-08T07:16:19;99124.00;;;16.50
10058;BMP180;5068;51.286;7.518;2023-08-08T07:17:53;99125.00;;;16.50
10058;BMP180;5068;51.286;7.518;2023-08-08T07:19:26;99117.00;;;16.50
10058;BMP180;5068;51.286;7.518;2023-08-08T07:20:59;99131.00;;;16.50
10058;BMP180;5068;51.286;7.518;2023-08-08T07:22:32;99132.00;;;16.50
10058;BMP180;5068;51.286;7.518;2023-08-08T07:24:06;99127.00;;;16.50
10058;BMP180;5068;51.286;7.518;2023-08-08T07:25:39;99122.00;;;16.50
10058;BMP180;5068;51.286;7.518;2023-08-08T07:27:14;99135.00;;;16.60
10058;BMP180;5068;51.286;7.518;2023-08-08T07:28:47;99124.00;;;16.60
10058;BMP180;5068;51.286;7.518;2023-08-08T07:30:19;99124.00;;;16.60
10058;BMP180;5068;51.286;7.518;2023-08-08T07:31:53;99132.00;;;16.60
10058;BMP180;5068;51.286;7.518;2023-08-08T07:33:26;99122.00;;;16.60
10058;BMP180;5068;51.286;7.518;2023-08-08T07:34:59;99127.00;;;16.70
10058;BMP180;5068;51.286;7.518;2023-08-08T07:36:33;99122.00;;;16.70
10058;BMP180;5068;51.286;7.518;2023-08-08T07:38:24;99126.00;;;16.70
10058;BMP180;5068;51.286;7.518;2023-08-08T07:39:58;99124.00;;;16.70
10058;BMP180;5068;51.286;7.518;2023-08-08T07:41:31;99127.00;;;16.70
10058;BMP180;5068;51.286;7.518;2023-08-08T07:43:06;99119.00;;;16.70
10058;BMP180;5068;51.286;7.518;2023-08-08T07:44:38;99129.00;;;16.70
10058;BMP180;5068;51.286;7.518;2023-08-08T07:46:12;99131.00;;;16.70
10058;BMP180;5068;51.286;7.518;2023-08-08T07:47:45;99131.00;;;16.70
10058;BMP180;5068;51.286;7.518;2023-08-08T07:49:18;99116.00;;;16.70
10058;BMP180;5068;51.286;7.518;2023-08-08T07:50:50;99130.00;;;16.70
10058;BMP180;5068;51.286;7.518;2023-08-08T07:52:24;99125.00;;;16.70
10058;BMP180;5068;51.286;7.518;2023-08-08T07:53:58;99124.00;;;16.70
10058;BMP180;5068;51.286;7.518;2023-08-08T07:55:30;99118.00;;;16.70
10058;BMP180;5068;51.286;7.518;2023-08-08T07:57:04;99116.00;;;16.70
10058;BMP180;5068;51.286;7.518;2023-08-08T07:58:38;99112.00;;;16.80
10058;BMP180;5068;51.286;7.518;2023-08-08T08:00:12;99120.00;;;16.80
10058;BMP180;5068;51.286;7.518;2023-08-08T08:01:45;99116.00;;;16.80
10058;BMP180;5068;51.286;7.518;2023-08-08T08:03:19;99114.00;;;16.90
10058;BMP180;5068;51.286;7.518;2023-08-08T08:04:51;99113.00;;;16.90
10058;BMP180;5068;51.286;7.518;2023-08-08T08:06:24;99114.00;;;16.90
10058;BMP180;5068;51.286;7.518;2023-08-08T08:07:57;99102.00;;;16.90
10058;BMP180;5068;51.286;7.518;2023-08-08T08:09:31;99118.00;;;17.00
10058;BMP180;5068;51.286;7.518;2023-08-08T08:11:03;99116.00;;;17.00
10058;BMP180;5068;51.286;7.518;2023-08-08T08:12:37;99123.00;;;17.00
10058;BMP180;5068;51.286;7.518;2023-08-08T08:14:11;99115.00;;;17.10
10058;BMP180;5068;51.286;7.518;2023-08-08T08:15:44;99120.00;;;17.10
10058;BMP180;5068;51.286;7.518;2023-08-08T08:17:17;99124.00;;;17.20
10058;BMP180;5068;51.286;7.518;2023-08-08T08:18:49;99117.00;;;17.20
10058;BMP180;5068;51.286;7.518;2023-08-08T08:20:23;99117.00;;;17.20
10058;BMP180;5068;51.286;7.518;2023-08-08T08:21:55;99115.00;;;17.30
10058;BMP180;5068;51.286;7.518;2023-08-08T08:23:29;99112.00;;;17.30
10058;BMP180;5068;51.286;7.518;2023-08-08T08:25:05;99113.00;;;17.30
10058;BMP180;5068;51.286;7.518;2023-08-08T08:26:39;99109.00;;;17.40
10058;BMP180;5068;51.286;7.518;2023-08-08T08:28:12;99113.00;;;17.40
10058;BMP180;5068;51.286;7.518;2023-08-08T08:29:47;99115.00;;;17.40
10058;BMP180;5068;51.286;7.518;2023-08-08T08:31:19;99109.00;;;17.40
10058;BMP180;5068;51.286;7.518;2023-08-08T08:32:52;99116.00;;;17.40
10058;BMP180;5068;51.286;7.518;2023-08-08T08:34:25;99114.00;;;17.40
10058;BMP180;5068;51.286;7.518;2023-08-08T08:35:58;99114.00;;;17.40
10058;BMP180;5068;51.286;7.518;2023-08-08T08:37:32;99110.00;;;17.40
10058;BMP180;5068;51.286;7.518;2023-08-08T08:39:04;99114.00;;;17.40
10058;BMP180;5068;51.286;7.518;2023-08-08T08:40:41;99107.00;;;17.40
10058;BMP180;5068;51.286;7.518;2023-08-08T08:42:14;99102.00;;;17.40
10058;BMP180;5068;51.286;7.518;2023-08-08T08:43:49;99098.00;;;17.50
10058;BMP180;5068;51.286;7.518;2023-08-08T08:45:24;99104.00;;;17.50
10058;BMP180;5068;51.286;7.518;2023-08-08T08:47:01;99107.00;;;17.50
10058;BMP180;5068;51.286;7.518;2023-08-08T08:48:34;99101.00;;;17.50
10058;BMP180;5068;51.286;7.518;2023-08-08T08:50:08;99108.00;;;17.50
10058;BMP180;5068;51.286;7.518;2023-08-08T08:51:41;99111.00;;;17.50
10058;BMP180;5068;51.286;7.518;2023-08-08T08:53:14;99112.00;;;17.50
10058;BMP180;5068;51.286;7.518;2023-08-08T08:54:47;99108.00;;;17.50
10058;BMP180;5068;51.286;7.518;2023-08-08T08:56:21;99104.00;;;17.60
10058;BMP180;5068;51.286;7.518;2023-08-08T08:57:55;99112.00;;;17.60
10058;BMP180;5068;51.286;7.518;2023-08-08T08:59:29;99114.00;;;17.60
10058;BMP180;5068;51.286;7.518;2023-08-08T09:01:04;99107.00;;;17.60
10058;BMP180;5068;51.286;7.518;2023-08-08T09:02:37;99110.00;;;17.60
10058;BMP180;5068;51.286;7.518;2023-08-08T09:04:11;99107.00;;;17.60
10058;BMP180;5068;51.286;7.518;2023-08-08T09:05:45;99101.00;;;17.70
10058;BMP180;5068;51.286;7.518;2023-08-08T09:07:23;99093.00;;;17.70
10058;BMP180;5068;51.286;7.518;2023-08-08T09:08:58;99100.00;;;17.70
10058;BMP180;5068;51.286;7.518;2023-08-08T09:10:47;99102.00;;;17.70